createdAt,value
2018-07-25T00:00:07.859Z,100938.77
2018-07-25T00:02:35.897Z,100935.50
2018-07-25T00:05:05.169Z,100933.52
2018-07-25T00:07:33.204Z,100941.75
2018-07-25T00:10:01.236Z,100946.63
2018-07-25T00:12:29.264Z,100943.99
2018-07-25T00:14:58.004Z,100947.31
2018-07-25T00:17:26.278Z,100939.12
2018-07-25T00:19:54.292Z,100941.98
2018-07-25T00:22:22.320Z,100937.94
2018-07-25T00:24:50.364Z,100939.91
2018-07-25T00:27:18.393Z,100936.22
2018-07-25T00:29:46.441Z,100938.09
2018-07-25T00:32:14.473Z,100932.06
2018-07-25T00:34:42.514Z,100936.27
2018-07-25T00:37:10.569Z,100937.63
2018-07-25T00:39:38.606Z,100939.34
2018-07-25T00:42:06.697Z,100942.70
2018-07-25T00:44:34.732Z,100943.66
2018-07-25T00:47:02.781Z,100938.16
2018-07-25T00:49:30.808Z,100930.05
2018-07-25T00:51:58.857Z,100934.11
2018-07-25T00:54:27.905Z,100935.27
2018-07-25T00:56:55.962Z,100934.16
2018-07-25T00:59:23.996Z,100933.34
2018-07-25T01:01:52.033Z,100931.70
2018-07-25T01:04:20.073Z,100938.80
2018-07-25T01:06:48.121Z,100933.44
2018-07-25T01:09:16.149Z,100937.21
2018-07-25T01:11:44.184Z,100935.00
2018-07-25T01:14:12.391Z,100934.39
2018-07-25T01:16:40.434Z,100929.92
2018-07-25T01:19:08.465Z,100931.64
2018-07-25T01:21:36.501Z,100923.83
2018-07-25T01:24:04.973Z,100926.87
2018-07-25T01:26:32.997Z,100930.88
2018-07-25T01:29:01.088Z,100928.52
2018-07-25T01:31:29.116Z,100931.83
2018-07-25T01:33:57.161Z,100930.83
2018-07-25T01:36:25.199Z,100931.48
2018-07-25T01:38:53.261Z,100935.14
2018-07-25T01:41:21.302Z,100933.47
2018-07-25T01:43:49.352Z,100934.11
2018-07-25T01:46:17.416Z,100936.09
2018-07-25T01:48:45.441Z,100932.56
2018-07-25T01:51:13.498Z,100931.95
2018-07-25T01:53:41.529Z,100934.84
2018-07-25T01:56:09.577Z,100931.52
2018-07-25T01:58:37.628Z,100933.78
2018-07-25T02:01:05.675Z,100931.72
2018-07-25T02:03:33.696Z,100934.73
2018-07-25T02:06:01.757Z,100933.55
2018-07-25T02:08:29.777Z,100939.57
2018-07-25T02:10:57.813Z,100941.55
2018-07-25T02:13:25.840Z,100940.72
2018-07-25T02:15:53.885Z,100939.04
2018-07-25T02:18:21.923Z,100939.38
2018-07-25T02:20:49.962Z,100941.70
2018-07-25T02:23:18.149Z,100936.71
2018-07-25T02:25:46.173Z,100939.04
2018-07-25T02:28:14.241Z,100932.03
2018-07-25T02:30:42.309Z,100934.50
2018-07-25T02:33:10.334Z,100935.84
2018-07-25T02:35:38.357Z,100939.69
2018-07-25T02:38:06.421Z,100942.02
2018-07-25T02:40:34.455Z,100939.00
2018-07-25T02:43:02.512Z,100939.00
2018-07-25T02:45:35.713Z,100945.86
2018-07-25T02:48:03.774Z,100947.27
2018-07-25T02:50:31.824Z,100939.14
2018-07-25T02:52:59.870Z,100936.17
2018-07-25T02:55:27.917Z,100938.56
2018-07-25T02:57:55.972Z,100938.06
2018-07-25T03:00:24.000Z,100946.93
2018-07-25T03:02:52.986Z,100945.59
2018-07-25T03:05:21.049Z,100945.78
2018-07-25T03:07:49.093Z,100946.30
2018-07-25T03:10:17.258Z,100944.98
2018-07-25T03:12:45.303Z,100950.28
2018-07-25T03:15:13.328Z,100959.80
2018-07-25T03:17:41.364Z,100952.30
2018-07-25T03:20:09.421Z,100955.61
2018-07-25T03:22:37.468Z,100953.78
2018-07-25T03:25:05.524Z,100951.80
2018-07-25T03:27:33.592Z,100952.32
2018-07-25T03:30:01.629Z,100947.70
2018-07-25T03:32:29.683Z,100946.11
2018-07-25T03:34:57.736Z,100948.14
2018-07-25T03:37:25.862Z,100950.78
2018-07-25T03:39:53.901Z,100949.42
2018-07-25T03:42:22.064Z,100941.06
2018-07-25T03:44:50.126Z,100947.26
2018-07-25T03:47:18.488Z,100939.16
2018-07-25T03:49:46.686Z,100945.87
2018-07-25T03:52:14.739Z,100949.91
2018-07-25T03:54:42.869Z,100948.80
2018-07-25T03:57:11.067Z,100943.67
2018-07-25T03:59:39.128Z,100941.00
2018-07-25T04:02:07.214Z,100946.67
2018-07-25T04:04:35.425Z,100949.05
2018-07-25T04:07:03.709Z,100953.19
2018-07-25T04:09:31.774Z,100953.70
2018-07-25T04:11:59.961Z,100963.47
2018-07-25T04:14:28.005Z,100962.31
2018-07-25T04:16:56.048Z,100965.45
2018-07-25T04:19:24.469Z,100964.45
2018-07-25T04:21:52.513Z,100966.30
2018-07-25T04:24:20.574Z,100964.61
2018-07-25T04:26:48.624Z,100967.77
2018-07-25T04:29:16.648Z,100970.11
2018-07-25T04:31:44.708Z,100974.30
2018-07-25T04:34:12.757Z,100972.43
2018-07-25T04:36:40.965Z,100974.77
2018-07-25T04:39:11.144Z,100969.91
2018-07-25T04:41:39.433Z,100978.84
2018-07-25T04:44:07.485Z,100978.97
2018-07-25T04:46:35.604Z,100981.61
2018-07-25T04:49:03.776Z,100984.93
2018-07-25T04:51:31.896Z,100983.75
2018-07-25T04:53:59.961Z,100995.07
2018-07-25T04:56:28.012Z,100987.73
2018-07-25T04:58:56.030Z,100996.75
2018-07-25T05:01:24.085Z,101000.69
2018-07-25T05:03:52.125Z,100998.84
2018-07-25T05:06:20.180Z,101005.69
2018-07-25T05:08:48.241Z,101006.18
2018-07-25T05:11:16.283Z,101010.36
2018-07-25T05:13:44.356Z,101011.86
2018-07-25T05:16:12.436Z,101007.33
2018-07-25T05:18:40.484Z,101011.98
2018-07-25T05:21:08.517Z,101013.63
2018-07-25T05:23:36.565Z,101015.93
2018-07-25T05:26:04.913Z,101021.09
2018-07-25T05:28:32.976Z,101018.23
2018-07-25T05:31:01.127Z,101020.23
2018-07-25T05:33:29.182Z,101020.05
2018-07-25T05:35:57.236Z,101022.19
2018-07-25T05:38:25.284Z,101026.84
2018-07-25T05:40:53.329Z,101028.80
2018-07-25T05:43:21.523Z,101036.12
2018-07-25T05:45:49.582Z,101030.91
2018-07-25T05:48:17.641Z,101037.23
2018-07-25T05:50:45.687Z,101032.39
2018-07-25T05:53:13.742Z,101041.89
2018-07-25T05:55:41.770Z,101039.38
2018-07-25T05:58:09.860Z,101037.33
2018-07-25T06:00:37.881Z,101031.74
2018-07-25T06:03:06.028Z,101035.83
2018-07-25T06:05:34.145Z,101032.25
2018-07-25T06:08:02.273Z,101034.01
2018-07-25T06:10:30.334Z,101047.23
2018-07-25T06:12:59.164Z,101052.80
2018-07-25T06:15:27.818Z,101057.67
2018-07-25T06:17:55.880Z,101059.22
2018-07-25T06:20:23.934Z,101053.64
2018-07-25T06:22:51.994Z,101054.86
2018-07-25T06:25:20.061Z,101055.08
2018-07-25T06:27:48.136Z,101052.88
2018-07-25T06:30:16.188Z,101049.63
2018-07-25T06:32:44.256Z,101048.66
2018-07-25T06:35:12.388Z,101049.20
2018-07-25T06:37:40.426Z,101042.40
2018-07-25T06:40:08.513Z,101050.80
2018-07-25T06:42:36.771Z,101059.16
2018-07-25T06:45:05.651Z,101053.84
2018-07-25T06:47:33.875Z,101055.39
2018-07-25T06:50:01.962Z,101059.70
2018-07-25T06:52:30.021Z,101061.01
2018-07-25T06:54:58.069Z,101058.98
2018-07-25T06:57:26.196Z,101064.25
2018-07-25T06:59:54.182Z,101069.81
2018-07-25T07:02:22.225Z,101066.68
2018-07-25T07:04:50.279Z,101069.11
2018-07-25T07:07:18.540Z,101072.19
2018-07-25T07:09:46.601Z,101069.50
2018-07-25T07:12:15.040Z,101081.86
2018-07-25T07:14:43.017Z,101081.42
2018-07-25T07:17:11.460Z,101075.78
2018-07-25T07:19:39.508Z,101077.90
2018-07-25T07:22:07.569Z,101081.08
2018-07-25T07:24:35.625Z,101076.73
2018-07-25T07:27:03.699Z,101078.39
2018-07-25T07:29:31.764Z,101082.95
2018-07-25T07:31:59.805Z,101090.28
2018-07-25T07:34:27.847Z,101089.77
2018-07-25T07:36:55.886Z,101087.39
2018-07-25T07:39:23.957Z,101083.88
2018-07-25T07:41:52.009Z,101087.17
2018-07-25T07:44:20.092Z,101087.99
2018-07-25T07:46:48.278Z,101082.62
2018-07-25T07:49:16.320Z,101089.28
2018-07-25T07:51:44.365Z,101086.95
2018-07-25T07:54:12.420Z,101096.74
2018-07-25T07:56:40.482Z,101096.25
2018-07-25T07:59:08.526Z,101092.34
2018-07-25T08:01:36.564Z,101096.59
2018-07-25T08:04:04.988Z,101096.14
2018-07-25T08:06:33.051Z,101092.86
2018-07-25T08:09:01.096Z,101098.02
2018-07-25T08:11:29.152Z,101095.20
2018-07-25T08:13:57.188Z,101091.59
2018-07-25T08:16:25.258Z,101093.17
2018-07-25T08:18:53.448Z,101090.80
2018-07-25T08:21:21.497Z,101092.55
2018-07-25T08:23:49.535Z,101093.93
2018-07-25T08:26:17.597Z,101086.99
2018-07-25T08:28:45.620Z,101100.76
2018-07-25T08:31:13.658Z,101097.33
2018-07-25T08:33:41.818Z,101096.07
2018-07-25T08:36:09.861Z,101097.11
2018-07-25T08:38:40.054Z,101103.09
2018-07-25T08:41:08.220Z,101096.58
2018-07-25T08:43:37.174Z,101094.06
2018-07-25T08:46:05.639Z,101092.28
2018-07-25T08:48:33.670Z,101097.02
2018-07-25T08:51:01.999Z,101095.00
2018-07-25T08:53:30.092Z,101096.01
2018-07-25T08:55:58.448Z,101094.14
2018-07-25T08:58:26.500Z,101097.59
2018-07-25T09:00:54.544Z,101100.78
2018-07-25T09:03:22.954Z,101096.95
2018-07-25T09:05:50.988Z,101101.31
2018-07-25T09:08:19.021Z,101098.36
2018-07-25T09:10:47.091Z,101092.50
2018-07-25T09:13:15.121Z,101094.73
2018-07-25T09:15:43.204Z,101104.91
2018-07-25T09:18:11.266Z,101099.70
2018-07-25T09:20:39.366Z,101099.42
2018-07-25T09:23:07.404Z,101102.16
2018-07-25T09:25:35.535Z,101096.64
2018-07-25T09:28:03.509Z,101094.25
2018-07-25T09:30:32.251Z,101098.01
2018-07-25T09:33:00.287Z,101095.69
2018-07-25T09:35:28.508Z,101099.84
2018-07-25T09:37:56.554Z,101093.99
2018-07-25T09:40:24.565Z,101094.09
2018-07-25T09:42:52.618Z,101095.04
2018-07-25T09:45:20.671Z,101098.98
2018-07-25T09:47:49.695Z,101091.27
2018-07-25T09:50:18.213Z,101090.28
2018-07-25T09:52:46.264Z,101084.80
2018-07-25T09:55:14.289Z,101092.73
2018-07-25T09:57:42.334Z,101097.87
2018-07-25T10:00:12.014Z,101098.04
2018-07-25T10:02:40.758Z,101094.69
2018-07-25T10:05:09.662Z,101094.42
2018-07-25T10:07:37.732Z,101093.98
2018-07-25T10:10:06.298Z,101098.58
2018-07-25T10:12:34.358Z,101095.36
2018-07-25T10:15:03.525Z,101096.55
2018-07-25T10:17:31.450Z,101098.52
2018-07-25T10:19:59.488Z,101099.74
2018-07-25T10:22:27.568Z,101097.21
2018-07-25T10:24:55.574Z,101090.16
2018-07-25T10:27:23.719Z,101099.52
2018-07-25T10:29:51.644Z,101093.85
2018-07-25T10:32:19.699Z,101100.42
2018-07-25T10:34:47.908Z,101095.22
2018-07-25T10:37:16.751Z,101098.91
2018-07-25T10:39:44.790Z,101096.28
2018-07-25T10:42:12.853Z,101096.30
2018-07-25T10:44:40.886Z,101090.41
2018-07-25T10:47:09.146Z,101088.44
2018-07-25T10:49:37.359Z,101094.36
2018-07-25T10:52:05.400Z,101091.84
2018-07-25T10:54:33.445Z,101088.75
2018-07-25T10:57:01.503Z,101085.69
2018-07-25T10:59:29.545Z,101092.21
2018-07-25T11:01:57.586Z,101095.94
2018-07-25T11:04:25.648Z,101094.49
2018-07-25T11:06:53.670Z,101095.22
2018-07-25T11:09:21.736Z,101091.83
2018-07-25T11:11:49.759Z,101094.13
2018-07-25T11:14:17.798Z,101093.14
2018-07-25T11:16:45.870Z,101086.80
2018-07-25T11:19:13.911Z,101088.77
2018-07-25T11:21:41.945Z,101090.31
2018-07-25T11:24:10.125Z,101083.14
2018-07-25T11:26:38.155Z,101094.53
2018-07-25T11:29:06.183Z,101093.94
2018-07-25T11:31:34.235Z,101095.67
2018-07-25T11:34:02.266Z,101089.25
2018-07-25T11:36:30.300Z,101086.16
2018-07-25T11:38:58.338Z,101076.99
2018-07-25T11:41:26.384Z,101081.30
2018-07-25T11:43:54.425Z,101084.91
2018-07-25T11:46:22.457Z,101083.20
2018-07-25T11:48:50.521Z,101081.91
2018-07-25T11:51:18.545Z,101085.72
2018-07-25T11:53:46.585Z,101081.20
2018-07-25T11:56:14.723Z,101082.64
2018-07-25T11:58:42.786Z,101083.83
2018-07-25T12:01:10.878Z,101082.53
2018-07-25T12:03:38.877Z,101085.05
2018-07-25T12:06:07.113Z,101085.81
2018-07-25T12:08:35.161Z,101080.70
2018-07-25T12:11:03.371Z,101079.38
2018-07-25T12:13:31.433Z,101077.52
2018-07-25T12:15:59.480Z,101077.48
2018-07-25T12:18:27.520Z,101073.52
2018-07-25T12:20:55.572Z,101074.14
2018-07-25T12:23:23.641Z,101067.70
2018-07-25T12:25:51.682Z,101064.89
2018-07-25T12:28:19.752Z,101071.09
2018-07-25T12:30:48.429Z,101067.02
2018-07-25T12:33:16.588Z,101068.77
2018-07-25T12:35:44.629Z,101059.66
2018-07-25T12:38:12.705Z,101068.08
2018-07-25T12:40:40.741Z,101067.02
2018-07-25T12:43:08.781Z,101068.15
2018-07-25T12:45:36.838Z,101064.86
2018-07-25T12:48:04.959Z,101067.34
2018-07-25T12:50:33.037Z,101058.00
2018-07-25T12:53:01.125Z,101062.40
2018-07-25T12:55:29.897Z,101056.75
2018-07-25T12:57:57.951Z,101051.06
2018-07-25T13:00:26.034Z,101047.12
2018-07-25T13:02:54.171Z,101051.60
2018-07-25T13:05:22.147Z,101050.84
2018-07-25T13:07:50.233Z,101046.53
2018-07-25T13:10:18.289Z,101041.72
2018-07-25T13:12:46.473Z,101037.66
2018-07-25T13:15:14.513Z,101040.29
2018-07-25T13:17:42.706Z,101034.86
2018-07-25T13:20:10.751Z,101032.89
2018-07-25T13:22:38.809Z,101039.74
2018-07-25T13:25:07.135Z,101033.96
2018-07-25T13:27:35.270Z,101034.73
2018-07-25T13:30:03.422Z,101035.01
2018-07-25T13:32:31.473Z,101024.56
2018-07-25T13:34:59.540Z,101024.11
2018-07-25T13:37:27.576Z,101028.86
2018-07-25T13:39:56.585Z,101026.87
2018-07-25T13:42:25.516Z,101020.37
2018-07-25T13:44:53.593Z,101019.09
2018-07-25T13:47:21.658Z,101017.20
2018-07-25T13:49:49.684Z,101012.02
2018-07-25T13:52:17.751Z,101000.75
2018-07-25T13:54:45.832Z,101002.71
2018-07-25T13:57:13.871Z,101011.48
2018-07-25T13:59:41.916Z,101007.13
2018-07-25T14:02:09.948Z,101007.63
2018-07-25T14:04:38.009Z,100999.08
2018-07-25T14:07:06.058Z,101002.34
2018-07-25T14:09:34.219Z,101003.43
2018-07-25T14:12:03.490Z,100998.91
2018-07-25T14:14:31.485Z,100998.05
2018-07-25T14:16:59.525Z,100986.10
2018-07-25T14:19:27.585Z,100990.48
2018-07-25T14:21:55.637Z,100985.06
2018-07-25T14:24:23.797Z,100982.40
2018-07-25T14:26:51.835Z,100984.93
2018-07-25T14:29:19.876Z,100994.70
2018-07-25T14:31:47.869Z,100986.92
2018-07-25T14:34:16.713Z,100984.77
2018-07-25T14:36:44.677Z,100980.98
2018-07-25T14:39:12.837Z,100989.64
2018-07-25T14:41:41.432Z,100978.88
2018-07-25T14:44:10.701Z,100984.00
2018-07-25T14:46:38.787Z,100979.39
2018-07-25T14:49:06.842Z,100983.56
2018-07-25T14:51:34.989Z,100981.62
2018-07-25T14:54:02.935Z,100985.87
2018-07-25T14:56:31.280Z,100978.48
2018-07-25T14:58:59.586Z,100976.14
2018-07-25T15:01:27.650Z,100983.03
2018-07-25T15:03:55.676Z,100978.58
2018-07-25T15:06:23.729Z,100978.78
2018-07-25T15:08:51.759Z,100977.42
2018-07-25T15:11:20.392Z,100977.16
2018-07-25T15:13:48.709Z,100967.08
2018-07-25T15:16:17.094Z,100964.90
2018-07-25T15:18:45.109Z,100958.05
2018-07-25T15:21:13.412Z,100957.84
2018-07-25T15:23:53.399Z,100965.54
2018-07-25T15:26:22.513Z,100969.00
2018-07-25T15:28:50.578Z,100959.48
2018-07-25T15:31:19.080Z,100960.34
2018-07-25T15:33:47.456Z,100955.00
2018-07-25T15:36:50.408Z,100957.11
2018-07-25T15:39:21.472Z,100948.89
2018-07-25T15:41:50.384Z,100960.26
2018-07-25T15:44:19.280Z,100949.94
2018-07-25T15:46:47.347Z,100947.48
2018-07-25T15:49:15.364Z,100959.72
2018-07-25T15:51:43.427Z,100961.25
2018-07-25T15:54:11.870Z,100962.56
2018-07-25T15:56:39.986Z,100959.46
2018-07-25T15:59:08.320Z,100953.44
2018-07-25T16:01:36.380Z,100960.73
2018-07-25T16:04:04.955Z,100950.60
2018-07-25T16:06:32.999Z,100953.52
2018-07-25T16:09:01.022Z,100954.29
2018-07-25T16:11:29.077Z,100946.08
2018-07-25T16:13:57.913Z,100959.66
2018-07-25T16:16:25.958Z,100962.58
2018-07-25T16:18:53.983Z,100962.34
2018-07-25T16:21:22.021Z,100971.81
2018-07-25T16:23:50.094Z,100978.30
2018-07-25T16:26:18.071Z,100998.56
2018-07-25T16:28:46.166Z,101012.95
2018-07-25T16:31:14.197Z,101008.99
2018-07-25T16:33:42.256Z,101013.37
2018-07-25T16:36:10.369Z,101015.47
2018-07-25T16:38:38.763Z,101004.17
2018-07-25T16:41:06.874Z,100990.92
2018-07-25T16:43:34.919Z,100984.80
2018-07-25T16:46:02.978Z,100983.46
2018-07-25T16:48:31.006Z,101000.47
2018-07-25T16:50:59.046Z,100989.30
2018-07-25T16:53:27.090Z,101006.02
2018-07-25T16:55:55.135Z,101010.43
2018-07-25T16:58:23.176Z,101035.69
2018-07-25T17:00:51.210Z,101029.42
2018-07-25T17:03:19.245Z,101025.30
2018-07-25T17:05:47.276Z,101035.73
2018-07-25T17:08:15.284Z,101045.69
2018-07-25T17:10:43.345Z,101068.63
2018-07-25T17:13:11.632Z,101077.00
2018-07-25T17:15:39.658Z,101081.88
2018-07-25T17:18:07.689Z,101072.60
2018-07-25T17:20:35.748Z,101068.02
2018-07-25T17:23:04.512Z,101064.91
2018-07-25T17:25:32.532Z,101054.13
2018-07-25T17:28:00.556Z,101061.42
2018-07-25T17:30:28.598Z,101066.81
2018-07-25T17:32:56.786Z,101080.05
2018-07-25T17:35:25.330Z,101114.42
2018-07-25T17:37:53.282Z,101125.19
2018-07-25T17:40:21.301Z,101176.82
2018-07-25T17:42:49.344Z,101199.58
2018-07-25T17:45:17.369Z,101199.30
2018-07-25T17:47:45.401Z,101216.92
2018-07-25T17:50:13.846Z,101242.73
2018-07-25T17:52:41.874Z,101240.80
2018-07-25T17:55:09.917Z,101231.69
2018-07-25T17:57:37.937Z,101229.41
2018-07-25T18:00:07.958Z,101230.39
2018-07-25T18:02:35.980Z,101217.14
2018-07-25T18:05:05.312Z,101204.38
2018-07-25T18:07:33.332Z,101182.50
2018-07-25T18:10:01.348Z,101167.86
2018-07-25T18:12:29.368Z,101160.56
2018-07-25T18:14:57.404Z,101143.06
2018-07-25T18:17:32.124Z,101140.75
2018-07-25T18:20:00.208Z,101140.70
2018-07-25T18:22:28.237Z,101143.99
2018-07-25T18:24:56.269Z,101139.87
2018-07-25T18:27:24.629Z,101136.59
2018-07-25T18:29:52.700Z,101117.24
2018-07-25T18:32:20.738Z,101111.53
2018-07-25T18:34:48.842Z,101106.82
2018-07-25T18:37:16.848Z,101111.08
2018-07-25T18:39:44.881Z,101104.59
2018-07-25T18:42:12.910Z,101097.70
2018-07-25T18:44:40.986Z,101089.98
2018-07-25T18:47:09.049Z,101096.17
2018-07-25T18:49:37.049Z,101097.16
2018-07-25T18:52:05.108Z,101091.20
2018-07-25T18:54:33.140Z,101096.22
2018-07-25T18:57:01.162Z,101115.05
2018-07-25T18:59:29.193Z,101115.88
2018-07-25T19:01:57.263Z,101116.54
2018-07-25T19:04:25.229Z,101113.73
2018-07-25T19:06:53.250Z,101113.21
2018-07-25T19:09:21.281Z,101101.35
2018-07-25T19:11:49.320Z,101098.84
2018-07-25T19:14:22.818Z,101101.48
2018-07-25T19:16:50.843Z,101095.97
2018-07-25T19:19:18.868Z,101097.67
2018-07-25T19:21:46.917Z,101097.16
2018-07-25T19:24:14.937Z,101101.67
2018-07-25T19:26:42.974Z,101108.99
2018-07-25T19:29:11.008Z,101107.97
2018-07-25T19:31:39.034Z,101111.34
2018-07-25T19:34:07.065Z,101107.20
2018-07-25T19:36:35.096Z,101112.53
2018-07-25T19:39:03.190Z,101103.53
2018-07-25T19:41:31.222Z,101106.89
2018-07-25T19:43:59.245Z,101100.03
2018-07-25T19:46:27.308Z,101111.72
2018-07-25T19:48:55.346Z,101108.03
2018-07-25T19:51:23.372Z,101109.73
2018-07-25T19:53:51.414Z,101109.90
2018-07-25T19:56:19.462Z,101104.41
2018-07-25T19:58:47.482Z,101106.90
2018-07-25T20:01:15.524Z,101108.06
2018-07-25T20:03:43.573Z,101101.56
2018-07-25T20:06:11.632Z,101102.55
2018-07-25T20:08:39.681Z,101099.08
2018-07-25T20:11:07.998Z,101099.23
2018-07-25T20:13:40.233Z,101098.24
2018-07-25T20:16:08.275Z,101098.58
2018-07-25T20:18:36.306Z,101090.94
2018-07-25T20:21:04.791Z,101097.78
2018-07-25T20:23:32.789Z,101106.77
2018-07-25T20:26:00.817Z,101102.95
2018-07-25T20:28:28.869Z,101099.29
2018-07-25T20:30:56.897Z,101093.98
2018-07-25T20:33:24.986Z,101095.97
2018-07-25T20:35:53.012Z,101100.97
2018-07-25T20:38:21.026Z,101092.61
2018-07-25T20:40:49.073Z,101096.09
2018-07-25T20:43:17.576Z,101094.27
2018-07-25T20:45:45.605Z,101096.93
2018-07-25T20:48:13.644Z,101101.24
2018-07-25T20:50:41.706Z,101105.42
2018-07-25T20:53:09.745Z,101106.09
2018-07-25T20:55:37.781Z,101109.78
2018-07-25T20:58:05.829Z,101110.30
2018-07-25T21:00:34.433Z,101107.63
2018-07-25T21:03:03.500Z,101105.97
2018-07-25T21:05:31.994Z,101111.48
2018-07-25T21:08:00.051Z,101108.69
2018-07-25T21:10:28.090Z,101109.84
2018-07-25T21:12:56.104Z,101108.64
2018-07-25T21:15:24.439Z,101111.95
2018-07-25T21:17:52.490Z,101114.63
2018-07-25T21:20:20.532Z,101124.13
2018-07-25T21:22:48.613Z,101123.30
2018-07-25T21:25:16.688Z,101123.95
2018-07-25T21:27:44.733Z,101127.45
2018-07-25T21:30:12.785Z,101121.16
2018-07-25T21:32:40.930Z,101121.84
2018-07-25T21:35:09.026Z,101118.69
2018-07-25T21:37:37.073Z,101121.17
2018-07-25T21:40:05.275Z,101126.50
2018-07-25T21:42:33.378Z,101129.16
2018-07-25T21:45:01.427Z,101129.16
2018-07-25T21:47:29.477Z,101131.66
2018-07-25T21:49:57.516Z,101129.36
2018-07-25T21:52:25.550Z,101134.02
2018-07-25T21:54:53.608Z,101130.18
2018-07-25T21:57:21.672Z,101129.38
2018-07-25T21:59:49.788Z,101135.86
2018-07-25T22:02:17.851Z,101126.03
2018-07-25T22:04:45.875Z,101125.03
2018-07-25T22:07:13.925Z,101124.53
2018-07-25T22:09:41.983Z,101125.20
2018-07-25T22:12:10.067Z,101121.36
2018-07-25T22:14:38.094Z,101118.34
2018-07-25T22:17:06.164Z,101115.51
2018-07-25T22:19:34.202Z,101118.03
2018-07-25T22:22:02.238Z,101113.86
2018-07-25T22:24:30.282Z,101113.52
2018-07-25T22:26:58.330Z,101109.03
2018-07-25T22:29:26.400Z,101112.84
2018-07-25T22:31:54.429Z,101117.37
2018-07-25T22:34:22.482Z,101107.86
2018-07-25T22:36:50.549Z,101113.50
2018-07-25T22:39:18.580Z,101112.52
2018-07-25T22:41:46.612Z,101105.18
2018-07-25T22:44:14.681Z,101107.86
2018-07-25T22:46:42.730Z,101104.52
2018-07-25T22:49:10.783Z,101112.34
2018-07-25T22:51:38.824Z,101112.99
2018-07-25T22:54:06.869Z,101116.33
2018-07-25T22:56:34.913Z,101116.00
2018-07-25T22:59:03.021Z,101109.34
2018-07-25T23:01:31.074Z,101106.52
2018-07-25T23:03:59.106Z,101102.33
2018-07-25T23:06:27.192Z,101098.70
2018-07-25T23:08:55.221Z,101101.67
2018-07-25T23:11:23.270Z,101093.37
2018-07-25T23:13:51.323Z,101094.52
2018-07-25T23:16:19.377Z,101094.04
2018-07-25T23:18:47.657Z,101099.86
2018-07-25T23:21:15.683Z,101095.21
2018-07-25T23:23:43.717Z,101096.05
2018-07-25T23:26:11.744Z,101106.18
2018-07-25T23:28:39.774Z,101101.37
2018-07-25T23:31:07.857Z,101105.69
2018-07-25T23:33:35.894Z,101107.86
2018-07-25T23:36:03.917Z,101104.05
2018-07-25T23:38:31.952Z,101103.04
2018-07-25T23:41:00.007Z,101101.05
2018-07-25T23:43:28.050Z,101107.39
2018-07-25T23:45:56.102Z,101109.05
2018-07-25T23:48:24.144Z,101102.74
2018-07-25T23:50:52.202Z,101113.39
2018-07-25T23:53:20.269Z,101107.55
2018-07-25T23:55:48.305Z,101109.41
2018-07-25T23:58:16.340Z,101113.91
